Time;durP1;ratioP1;P1;durP2;ratioP2;P2;SDS_P1;SDS_P2;PMS_P1;PMS_P2;Temp;Humidity;BMP_temperature;BMP_pressure;BME280_temperature;BME280_humidity;BME280_pressure;Samples;Min_cycle;Max_cycle;Signal;HPM_P1;HPM_P2
2023/04/27 04:22:33;;;;;;;7.35;3.05;;;;;;;6.69;100.00;100387.56;5109878;27;20726;-68
2023/04/27 04:24:59;;;;;;;4.93;2.97;;;;;;;6.71;100.00;100383.78;5108610;28;20032;-69
2023/04/27 04:27:25;;;;;;;5.40;3.33;;;;;;;6.76;100.00;100378.91;5108190;28;20070;-68
2023/04/27 04:29:50;;;;;;;4.15;3.05;;;;;;;6.69;100.00;100377.81;5108548;28;20075;-68
2023/04/27 04:32:17;;;;;;;4.22;2.92;;;;;;;6.70;100.00;100379.47;5108441;28;20040;-68
2023/04/27 04:34:48;;;;;;;5.28;3.28;;;;;;;6.72;100.00;100376.72;5108449;28;20044;-68
2023/04/27 04:37:14;;;;;;;4.25;3.03;;;;;;;6.71;100.00;100383.78;5109164;28;20412;-69
2023/04/27 04:39:39;;;;;;;5.00;3.22;;;;;;;6.75;100.00;100381.69;5109649;28;20043;-68
2023/04/27 04:42:05;;;;;;;4.57;2.85;;;;;;;6.78;100.00;100387.56;5108223;28;20048;-68
2023/04/27 04:44:32;;;;;;;6.28;3.72;;;;;;;6.78;100.00;100390.19;5108281;28;20036;-68
2023/04/27 04:46:57;;;;;;;6.88;3.90;;;;;;;6.86;100.00;100384.16;5107868;28;20043;-68
2023/04/27 04:49:25;;;;;;;8.85;4.00;;;;;;;6.93;100.00;100382.59;5108012;28;20031;-68
2023/04/27 04:51:50;;;;;;;5.00;3.25;;;;;;;6.97;100.00;100388.44;5108041;28;20118;-68
2023/04/27 04:54:15;;;;;;;5.07;3.20;;;;;;;7.03;100.00;100387.84;5108045;28;20085;-69
2023/04/27 04:56:41;;;;;;;4.25;3.20;;;;;;;7.01;100.00;100389.81;5109288;28;20041;-68
2023/04/27 04:59:06;;;;;;;8.65;3.13;;;;;;;7.01;100.00;100388.00;5090625;28;20559;-68
2023/04/27 05:01:32;;;;;;;5.82;3.08;;;;;;;7.00;100.00;100390.78;5109138;28;20449;-68
2023/04/27 05:03:58;;;;;;;4.72;2.95;;;;;;;7.04;100.00;100393.03;5109225;28;20506;-69
2023/04/27 05:06:23;;;;;;;3.38;2.83;;;;;;;6.96;100.00;100394.72;5108873;28;20040;-68
2023/04/27 05:08:49;;;;;;;7.47;3.03;;;;;;;7.00;100.00;100396.94;5108801;28;20043;-69
2023/04/27 05:11:14;;;;;;;3.40;2.50;;;;;;;6.96;99.69;100400.84;5108978;28;20433;-66
2023/04/27 05:13:40;;;;;;;4.90;3.15;;;;;;;7.02;100.00;100404.72;5108984;28;20043;-69
2023/04/27 05:16:06;;;;;;;4.82;3.22;;;;;;;7.05;100.00;100404.44;5108795;28;20035;-68
2023/04/27 05:18:33;;;;;;;4.72;3.03;;;;;;;7.03;99.36;100406.38;5108713;28;20044;-68
2023/04/27 05:20:59;;;;;;;4.30;3.47;;;;;;;7.03;98.08;100411.69;5108525;28;20480;-67
2023/04/27 05:23:25;;;;;;;4.68;2.92;;;;;;;7.10;98.13;100411.94;5108946;28;20036;-68
2023/04/27 05:25:50;;;;;;;8.43;3.20;;;;;;;7.19;97.20;100406.59;5108702;28;20036;-68
2023/04/27 05:28:16;;;;;;;4.72;3.13;;;;;;;7.21;96.08;100414.41;5108341;28;20036;-68
2023/04/27 05:30:41;;;;;;;5.85;2.92;;;;;;;7.19;95.74;100414.53;5108653;28;20032;-68
2023/04/27 05:33:06;;;;;;;3.35;2.55;;;;;;;7.26;96.38;100415.63;5099349;28;20043;-69
2023/04/27 05:35:32;;;;;;;5.45;2.88;;;;;;;7.23;95.44;100423.00;5094942;28;20189;-68
2023/04/27 05:37:58;;;;;;;5.32;3.15;;;;;;;7.28;94.64;100420.78;5091794;28;20028;-68
2023/04/27 05:40:23;;;;;;;4.43;2.88;;;;;;;7.27;94.09;100427.06;5094770;28;20093;-68
2023/04/27 05:42:49;;;;;;;3.67;2.95;;;;;;;7.25;94.07;100427.22;5094798;28;20053;-67
2023/04/27 05:45:15;;;;;;;3.45;2.60;;;;;;;7.27;93.83;100427.88;5094704;28;20043;-67
2023/04/27 05:47:40;;;;;;;4.20;2.58;;;;;;;7.33;94.64;100423.81;5094455;28;20047;-68
2023/04/27 05:50:07;;;;;;;4.30;2.80;;;;;;;7.35;97.45;100435.91;5094485;28;20040;-67
2023/04/27 05:52:33;;;;;;;5.22;3.20;;;;;;;7.46;95.79;100440.19;5094692;28;20054;-67
2023/04/27 05:54:59;;;;;;;3.30;2.60;;;;;;;7.51;94.92;100437.13;5093455;28;20377;-61
2023/04/27 05:57:25;;;;;;;4.50;3.00;;;;;;;7.59;93.86;100443.31;5093960;28;20035;-62
2023/04/27 05:59:51;;;;;;;3.50;2.65;;;;;;;7.72;92.79;100442.97;5093621;28;20039;-62
2023/04/27 06:02:17;;;;;;;3.90;2.80;;;;;;;7.82;92.12;100441.09;5094338;28;20058;-62
2023/04/27 06:04:44;;;;;;;3.92;2.70;;;;;;;7.89;91.81;100450.13;5094419;28;20047;-62
2023/04/27 06:07:10;;;;;;;4.72;2.75;;;;;;;7.99;93.36;100446.53;5093892;28;20036;-62
2023/04/27 06:09:37;;;;;;;4.03;3.05;;;;;;;8.09;93.61;100460.56;5094315;28;20132;-62
2023/04/27 06:12:03;;;;;;;6.30;2.70;;;;;;;8.19;93.10;100458.66;5094246;28;20032;-62
2023/04/27 06:14:29;;;;;;;3.05;2.50;;;;;;;8.34;94.14;100457.13;5094170;28;20040;-62
2023/04/27 06:16:55;;;;;;;3.20;2.80;;;;;;;8.21;92.99;100451.38;5093912;28;20075;-62
2023/04/27 06:19:20;;;;;;;3.47;2.90;;;;;;;8.39;92.85;100462.00;5093953;28;20132;-61
2023/04/27 06:21:46;;;;;;;4.28;2.58;;;;;;;8.41;92.48;100462.69;5093973;28;20032;-61
2023/04/27 06:24:11;;;;;;;2.85;2.30;;;;;;;8.42;94.11;100462.56;5094049;28;20032;-61
2023/04/27 06:26:36;;;;;;;4.18;2.58;;;;;;;8.48;92.96;100449.66;5093812;28;20374;-62
2023/04/27 06:29:03;;;;;;;6.18;3.08;;;;;;;8.62;91.35;100467.69;5093752;28;20091;-62
2023/04/27 06:31:28;;;;;;;4.40;2.55;;;;;;;8.73;90.59;100464.75;5093887;28;20067;-62
2023/04/27 06:33:54;;;;;;;3.55;2.30;;;;;;;8.76;89.85;100463.63;5092587;28;20060;-60
2023/04/27 06:36:20;;;;;;;3.92;2.60;;;;;;;8.74;89.95;100469.09;5093724;28;20046;-60
2023/04/27 06:38:45;;;;;;;5.45;3.05;;;;;;;8.74;90.48;100478.84;5092298;28;20044;-59
2023/04/27 06:41:10;;;;;;;6.72;2.25;;;;;;;8.84;89.60;100468.97;5093466;28;20040;-62
2023/04/27 06:43:37;;;;;;;3.00;2.42;;;;;;;8.91;89.79;100454.91;5093166;28;20055;-60
2023/04/27 06:46:03;;;;;;;4.75;2.90;;;;;;;9.05;89.82;100463.28;5093066;28;20622;-64
2023/04/27 06:48:28;;;;;;;3.45;2.60;;;;;;;9.14;89.50;100470.31;5079101;28;20079;-63
2023/04/27 06:50:54;;;;;;;5.25;2.60;;;;;;;9.21;86.14;100471.34;5074046;28;20024;-64
2023/04/27 06:53:19;;;;;;;4.43;2.60;;;;;;;9.35;86.29;100472.56;5073200;28;20040;-65
2023/04/27 06:55:45;;;;;;;4.18;2.58;;;;;;;9.49;86.97;100467.47;5073069;28;20075;-65
2023/04/27 06:58:10;;;;;;;5.30;2.75;;;;;;;9.63;86.01;100465.19;5072876;28;20552;-64
2023/04/27 07:00:36;;;;;;;3.03;2.33;;;;;;;9.73;84.94;100471.22;5073196;28;20143;-65
2023/04/27 07:03:01;;;;;;;3.72;2.20;;;;;;;9.91;83.08;100474.59;5073262;28;20451;-64
2023/04/27 07:05:26;;;;;;;3.17;2.50;;;;;;;9.88;81.25;100476.72;5072973;28;20059;-65
2023/04/27 07:07:52;;;;;;;3.17;2.35;;;;;;;10.00;82.19;100483.41;5072759;28;20051;-65
2023/04/27 07:10:17;;;;;;;6.40;2.75;;;;;;;10.07;84.26;100474.59;5072835;28;20033;-65
2023/04/27 07:12:43;;;;;;;5.10;2.72;;;;;;;10.15;84.70;100470.28;5073176;28;20128;-65
2023/04/27 07:15:09;;;;;;;3.95;2.80;;;;;;;10.22;83.11;100476.59;5073461;28;20048;-65
2023/04/27 07:17:34;;;;;;;4.45;2.65;;;;;;;10.41;81.96;100478.16;5072611;28;20040;-65
2023/04/27 07:20:00;;;;;;;4.28;2.63;;;;;;;10.35;79.48;100468.16;5072880;28;20035;-65
2023/04/27 07:22:27;;;;;;;3.88;2.20;;;;;;;10.45;76.18;100477.66;5072892;28;20115;-65
2023/04/27 07:24:53;;;;;;;2.78;2.55;;;;;;;10.38;78.87;100478.50;5072713;28;20044;-65
2023/04/27 07:27:19;;;;;;;4.07;2.85;;;;;;;10.63;76.45;100477.50;5073035;28;20036;-65
2023/04/27 07:29:44;;;;;;;2.55;2.35;;;;;;;10.80;78.02;100473.78;5073628;28;20036;-65
2023/04/27 07:32:10;;;;;;;2.60;1.95;;;;;;;10.86;80.41;100470.44;5072997;28;20036;-64
2023/04/27 07:34:35;;;;;;;6.38;2.85;;;;;;;10.70;73.63;100473.16;5072502;28;20067;-65
2023/04/27 07:37:01;;;;;;;2.30;2.10;;;;;;;10.97;75.39;100468.44;5072078;28;20353;-64
2023/04/27 07:39:27;;;;;;;5.47;2.42;;;;;;;10.97;78.32;100461.28;5072740;28;20565;-64
2023/04/27 07:41:53;;;;;;;2.17;1.98;;;;;;;11.06;72.89;100460.22;5072657;28;20115;-65
2023/04/27 07:44:19;;;;;;;3.60;2.08;;;;;;;11.17;76.27;100456.38;5072854;28;20090;-65
2023/04/27 07:46:48;;;;;;;3.63;2.72;;;;;;;11.32;76.05;100453.81;5070874;28;20063;-64
2023/04/27 07:49:15;;;;;;;3.40;2.42;;;;;;;11.41;73.71;100453.63;5072085;28;20082;-64
2023/04/27 07:51:41;;;;;;;3.80;2.13;;;;;;;11.45;71.38;100447.94;5072695;28;20103;-64
2023/04/27 07:54:07;;;;;;;2.95;2.42;;;;;;;11.54;71.87;100452.19;5072341;28;20031;-64
2023/04/27 07:56:32;;;;;;;3.33;2.50;;;;;;;11.57;70.74;100442.03;5072692;28;20411;-65
2023/04/27 07:58:58;;;;;;;3.83;2.30;;;;;;;11.72;72.59;100451.94;5072943;28;20123;-64
2023/04/27 08:01:23;;;;;;;2.60;2.00;;;;;;;11.71;72.82;100448.44;5072361;28;20032;-64
2023/04/27 08:03:49;;;;;;;3.03;2.63;;;;;;;11.76;69.93;100445.28;5072826;28;20489;-64
2023/04/27 08:06:15;;;;;;;3.05;2.30;;;;;;;11.81;67.09;100437.59;5072232;28;20051;-64
2023/04/27 08:08:40;;;;;;;3.30;2.42;;;;;;;11.88;68.16;100438.56;5072317;28;20127;-63
2023/04/27 08:11:10;;;;;;;2.65;2.28;;;;;;;12.01;69.60;100448.66;5072527;28;20044;-64
2023/04/27 08:13:35;;;;;;;2.92;2.35;;;;;;;12.10;72.51;100450.25;5074866;28;20048;-65
2023/04/27 08:16:01;;;;;;;4.03;2.22;;;;;;;12.18;73.71;100440.31;5072189;28;20055;-64
2023/04/27 08:18:27;;;;;;;4.82;2.30;;;;;;;12.37;71.47;100454.19;5072201;28;20040;-64
2023/04/27 08:20:53;;;;;;;2.80;2.20;;;;;;;12.49;69.18;100448.25;5072088;28;20064;-64
2023/04/27 08:23:18;;;;;;;3.08;2.10;;;;;;;12.66;71.71;100448.09;5072116;28;20047;-63
2023/04/27 08:25:43;;;;;;;3.42;1.77;;;;;;;12.74;67.37;100448.03;5072336;28;20040;-65
2023/04/27 08:28:09;;;;;;;3.33;1.98;;;;;;;12.87;64.17;100442.03;5071722;28;20052;-64
2023/04/27 08:30:35;;;;;;;4.97;2.13;;;;;;;12.98;64.68;100441.59;5072681;28;20048;-64
2023/04/27 08:33:00;;;;;;;2.83;2.10;;;;;;;13.16;62.49;100436.69;5071317;28;20094;-64
2023/04/27 08:35:25;;;;;;;2.78;1.90;;;;;;;13.30;61.09;100435.03;5072418;28;20071;-64
2023/04/27 08:37:53;;;;;;;2.65;2.30;;;;;;;13.38;59.61;100436.81;5071491;28;20067;-65
2023/04/27 08:40:19;;;;;;;3.53;2.10;;;;;;;13.44;59.45;100428.88;5074998;28;20127;-65
2023/04/27 08:42:58;;;;;;;2.17;1.95;;;;;;;13.64;56.37;100421.06;5075648;28;20083;-65
2023/04/27 08:45:25;;;;;;;3.58;2.00;;;;;;;13.72;62.16;100428.16;5075061;28;20054;-64
2023/04/27 08:47:50;;;;;;;2.38;1.70;;;;;;;13.83;57.92;100420.44;5074113;28;20047;-65
2023/04/27 08:50:16;;;;;;;4.47;2.00;;;;;;;13.96;57.51;100435.00;5074148;28;20033;-64
2023/04/27 08:52:46;;;;;;;2.47;1.70;;;;;;;14.18;55.13;100433.13;5075274;28;20036;-63
2023/04/27 08:55:12;;;;;;;3.60;1.90;;;;;;;14.35;54.83;100435.38;5075296;28;20409;-65
2023/04/27 08:57:37;;;;;;;3.55;2.25;;;;;;;14.34;53.18;100428.34;5075441;28;20041;-65
2023/04/27 09:00:21;;;;;;;6.38;2.15;;;;;;;14.59;58.43;100434.13;5074766;28;20082;-65
2023/04/27 09:02:47;;;;;;;2.22;1.75;;;;;;;14.75;56.83;100426.84;5075171;28;20068;-65
2023/04/27 09:05:21;;;;;;;3.90;2.13;;;;;;;14.73;53.93;100431.53;5074561;28;20093;-65
2023/04/27 09:07:55;;;;;;;2.80;1.95;;;;;;;14.91;55.21;100432.69;5074261;28;20098;-65
2023/04/27 09:10:22;;;;;;;3.30;1.50;;;;;;;15.09;54.27;100421.47;5077147;28;20113;-65
2023/04/27 09:12:58;;;;;;;2.80;1.90;;;;;;;15.27;53.15;100420.94;5076208;28;20611;-65
2023/04/27 09:15:25;;;;;;;2.17;1.63;;;;;;;15.59;53.94;100432.00;5077147;28;20039;-63
2023/04/27 09:17:55;;;;;;;1.92;1.40;;;;;;;15.66;54.47;100428.34;5077068;28;20037;-65
2023/04/27 09:20:21;;;;;;;2.65;1.58;;;;;;;15.83;51.93;100434.16;5075482;28;20028;-65
2023/04/27 09:22:50;;;;;;;2.22;1.75;;;;;;;16.24;55.27;100434.03;5075997;28;20489;-65
2023/04/27 09:25:41;;;;;;;2.65;1.65;;;;;;;16.49;51.63;100430.72;5077257;28;20511;-65
2023/04/27 09:28:07;;;;;;;2.45;1.73;;;;;;;16.43;51.44;100420.78;5072741;28;20059;-64
2023/04/27 09:30:32;;;;;;;2.63;1.83;;;;;;;16.68;48.04;100423.69;5075757;28;20032;-65
2023/04/27 09:33:01;;;;;;;3.08;1.48;;;;;;;16.47;46.94;100422.88;5077292;28;20051;-65
2023/04/27 09:35:29;;;;;;;3.30;1.70;;;;;;;16.86;47.88;100417.69;5077435;28;20139;-64
2023/04/27 09:37:55;;;;;;;2.50;1.60;;;;;;;16.99;48.06;100418.47;5076276;28;20328;-65
2023/04/27 09:40:25;;;;;;;3.33;1.58;;;;;;;17.24;47.35;100421.31;5075982;28;20395;-63
2023/04/27 09:42:51;;;;;;;3.60;2.17;;;;;;;17.35;49.77;100411.75;5076850;28;20176;-65
2023/04/27 09:45:18;;;;;;;2.60;1.73;;;;;;;17.53;45.52;100413.72;5075275;28;20036;-64
2023/04/27 09:47:44;;;;;;;4.80;1.67;;;;;;;17.53;45.79;100413.72;5076344;28;20497;-64
2023/04/27 09:50:12;;;;;;;2.33;1.40;;;;;;;17.93;44.61;100413.53;5075639;28;20126;-65
2023/04/27 09:52:37;;;;;;;1.92;1.70;;;;;;;18.00;43.10;100419.72;5074923;28;20377;-65
2023/04/27 09:55:06;;;;;;;1.80;1.60;;;;;;;17.86;42.35;100416.25;5074050;28;20048;-65
2023/04/27 09:57:49;;;;;;;3.58;1.70;;;;;;;18.43;42.40;100409.00;5074598;28;20045;-65
2023/04/27 10:00:44;;;;;;;2.65;1.77;;;;;;;18.75;40.74;100411.66;5075476;28;20115;-65
2023/04/27 10:03:32;;;;;;;2.17;1.52;;;;;;;18.82;41.94;100404.31;5074494;28;20477;-64
2023/04/27 10:06:19;;;;;;;4.90;1.75;;;;;;;19.37;42.22;100407.03;5068905;28;20501;-65
2023/04/27 10:08:45;;;;;;;2.53;1.60;;;;;;;19.67;40.67;100413.28;5074222;28;20448;-65
2023/04/27 10:11:20;;;;;;;2.13;1.40;;;;;;;19.77;40.43;100402.78;5074181;28;20128;-66
2023/04/27 10:13:53;;;;;;;2.83;1.38;;;;;;;20.03;40.49;100398.84;5074188;28;20045;-66
2023/04/27 10:16:20;;;;;;;2.05;1.73;;;;;;;20.16;37.61;100397.00;5073891;28;20093;-65
2023/04/27 10:18:54;;;;;;;2.50;1.63;;;;;;;20.08;36.64;100400.84;5073711;28;20044;-65
2023/04/27 10:21:20;;;;;;;2.10;1.50;;;;;;;19.45;39.14;100396.72;5074260;28;20039;-64
2023/04/27 10:23:49;;;;;;;2.55;1.25;;;;;;;20.12;37.90;100393.09;5074024;28;20032;-65
2023/04/27 10:26:26;;;;;;;1.70;1.40;;;;;;;20.04;40.37;100396.97;5073499;28;20490;-66
2023/04/27 10:29:07;;;;;;;1.67;1.20;;;;;;;20.01;40.82;100402.81;5073524;28;20040;-65
2023/04/27 10:31:34;;;;;;;2.67;1.80;;;;;;;19.92;40.16;100398.81;5073660;28;20044;-66
2023/04/27 10:34:10;;;;;;;1.85;1.40;;;;;;;20.19;39.44;100394.63;5073950;28;20042;-65
2023/04/27 10:36:37;;;;;;;2.33;1.50;;;;;;;20.57;37.03;100398.81;5073695;28;20111;-65
2023/04/27 10:39:16;;;;;;;2.20;1.20;;;;;;;21.07;37.55;100392.91;5073369;28;20056;-65
2023/04/27 10:41:52;;;;;;;3.10;1.20;;;;;;;21.01;38.39;100397.38;5073624;28;20448;-65
2023/04/27 10:44:28;;;;;;;2.47;1.58;;;;;;;21.38;35.48;100392.47;5073362;28;20046;-65
2023/04/27 10:46:59;;;;;;;2.03;1.40;;;;;;;21.53;35.91;100388.44;5073244;28;20090;-65
2023/04/27 10:49:28;;;;;;;2.03;1.65;;;;;;;21.61;33.78;100388.88;5073408;28;20044;-65
2023/04/27 10:51:57;;;;;;;1.33;1.20;;;;;;;21.65;34.18;100386.50;5073287;28;20051;-65
2023/04/27 10:54:27;;;;;;;3.15;1.30;;;;;;;22.25;35.76;100385.13;5073412;28;20051;-65
2023/04/27 10:56:53;;;;;;;1.15;1.00;;;;;;;22.48;34.08;100387.66;5073198;28;20115;-65
2023/04/27 10:59:18;;;;;;;2.05;1.75;;;;;;;22.50;35.79;100379.28;5073031;28;20064;-63
2023/04/27 11:01:48;;;;;;;1.80;1.33;;;;;;;22.95;34.33;100371.81;5073117;28;20028;-64
2023/04/27 11:04:14;;;;;;;2.35;1.23;;;;;;;22.63;33.27;100374.34;5073058;28;20040;-65
2023/04/27 11:06:44;;;;;;;2.78;1.38;;;;;;;22.84;33.69;100375.44;5072930;28;20047;-65
2023/04/27 11:09:10;;;;;;;1.90;1.30;;;;;;;23.11;31.98;100374.72;5072770;28;20097;-65
2023/04/27 11:11:35;;;;;;;2.22;1.30;;;;;;;23.14;32.91;100371.47;5072935;28;20124;-65
2023/04/27 11:14:02;;;;;;;2.65;1.08;;;;;;;22.86;32.09;100380.59;5072816;28;20045;-65
2023/04/27 11:16:28;;;;;;;2.47;1.53;;;;;;;22.50;34.02;100374.69;5072797;28;20036;-65
2023/04/27 11:18:54;;;;;;;1.55;1.20;;;;;;;22.87;32.69;100377.66;5072388;28;20040;-64
2023/04/27 11:21:20;;;;;;;1.10;1.00;;;;;;;23.13;33.93;100375.28;5072696;28;20044;-63
2023/04/27 11:23:46;;;;;;;3.33;1.40;;;;;;;23.72;32.35;100365.38;5072750;28;20048;-64
2023/04/27 11:26:14;;;;;;;1.88;1.25;;;;;;;22.54;34.11;100364.13;5072721;28;20043;-63
2023/04/27 11:29:04;;;;;;;2.22;1.40;;;;;;;23.07;35.77;100365.41;5072292;28;20066;-62
2023/04/27 11:31:47;;;;;;;1.40;1.15;;;;;;;23.57;32.22;100359.75;5072131;28;20112;-63
2023/04/27 11:34:24;;;;;;;2.13;1.73;;;;;;;23.46;31.03;100358.81;5072467;28;20037;-65
2023/04/27 11:36:56;;;;;;;2.78;1.70;;;;;;;23.62;31.21;100353.59;5072197;28;20042;-64
2023/04/27 11:39:22;;;;;;;2.65;1.30;;;;;;;23.47;32.28;100346.88;5072549;28;20052;-65
2023/04/27 11:41:47;;;;;;;1.90;1.10;;;;;;;23.05;31.81;100345.84;5072557;28;20058;-63
2023/04/27 11:44:13;;;;;;;1.58;1.20;;;;;;;23.18;32.82;100348.19;5072450;28;20044;-64
2023/04/27 11:46:42;;;;;;;1.75;1.55;;;;;;;23.12;31.70;100350.00;5072469;28;20078;-65
2023/04/27 11:49:08;;;;;;;2.92;1.65;;;;;;;23.66;30.53;100341.09;5072337;28;20064;-65
2023/04/27 11:51:35;;;;;;;1.70;1.33;;;;;;;23.55;31.25;100332.84;5072442;28;20453;-65
2023/04/27 11:54:05;;;;;;;3.70;1.77;;;;;;;24.31;29.84;100331.84;5071155;28;20478;-65
2023/04/27 11:56:41;;;;;;;1.48;1.38;;;;;;;24.62;28.87;100325.53;5072818;28;20400;-65
2023/04/27 11:59:22;;;;;;;2.08;1.27;;;;;;;23.79;30.23;100319.75;5072309;28;20062;-62
2023/04/27 12:01:47;;;;;;;2.58;1.42;;;;;;;23.95;29.12;100320.72;5070829;28;20044;-63
2023/04/27 12:04:13;;;;;;;1.98;1.42;;;;;;;24.02;29.86;100323.22;5072031;28;20041;-62
2023/04/27 12:06:39;;;;;;;1.90;1.30;;;;;;;23.16;31.19;100312.31;5071994;28;20123;-62
2023/04/27 12:09:04;;;;;;;2.30;1.70;;;;;;;22.16;31.48;100322.31;5071774;28;20068;-64
2023/04/27 12:11:29;;;;;;;2.70;1.63;;;;;;;22.73;32.74;100317.44;5070791;28;20536;-61
2023/04/27 12:13:56;;;;;;;2.80;1.38;;;;;;;22.56;33.76;100318.56;5072061;28;20036;-63
2023/04/27 12:16:22;;;;;;;1.92;1.45;;;;;;;23.33;31.40;100321.16;5071969;28;20051;-63
2023/04/27 12:18:48;;;;;;;3.08;1.63;;;;;;;23.61;31.16;100320.16;5071662;28;20032;-63
2023/04/27 12:21:14;;;;;;;2.03;1.40;;;;;;;23.26;30.47;100309.69;5071833;28;20512;-64
2023/04/27 12:23:39;;;;;;;2.33;1.40;;;;;;;23.26;31.83;100312.41;5072001;28;20059;-61
2023/04/27 12:26:06;;;;;;;1.55;1.25;;;;;;;23.01;31.50;100311.03;5070540;28;20036;-60
2023/04/27 12:28:32;;;;;;;2.33;1.50;;;;;;;22.59;31.74;100305.31;5071533;28;20074;-60
2023/04/27 12:30:57;;;;;;;2.03;1.60;;;;;;;23.28;31.52;100304.84;5071632;28;20066;-64
2023/04/27 12:33:23;;;;;;;1.30;1.20;;;;;;;22.63;31.95;100297.50;5071679;28;20055;-62
2023/04/27 12:35:48;;;;;;;1.40;1.30;;;;;;;22.50;32.19;100308.72;5071720;28;20049;-62
2023/04/27 12:38:14;;;;;;;2.65;1.20;;;;;;;22.66;32.79;100305.13;5071485;28;20032;-61
2023/04/27 12:40:39;;;;;;;2.50;1.30;;;;;;;21.30;33.47;100298.03;5071732;28;20064;-63
2023/04/27 12:43:06;;;;;;;1.67;1.27;;;;;;;23.05;32.62;100299.66;5073549;28;20036;-61
2023/04/27 12:45:32;;;;;;;2.47;1.50;;;;;;;23.74;30.92;100303.41;5075702;28;20048;-62
2023/04/27 12:47:58;;;;;;;3.40;1.35;;;;;;;23.63;30.80;100300.84;5075306;28;20028;-63
2023/04/27 12:50:23;;;;;;;2.47;1.38;;;;;;;24.16;30.54;100308.06;5075552;28;20463;-64
2023/04/27 12:52:49;;;;;;;1.92;1.30;;;;;;;23.79;31.14;100300.69;5075577;28;20118;-64
2023/04/27 12:55:14;;;;;;;2.03;1.33;;;;;;;24.06;31.13;100300.69;5075413;28;20056;-61
2023/04/27 12:57:40;;;;;;;3.25;1.45;;;;;;;23.89;29.87;100297.25;5075515;28;20068;-61
2023/04/27 13:00:09;;;;;;;1.63;1.40;;;;;;;24.52;29.04;100298.28;5075405;28;20127;-64
2023/04/27 13:02:35;;;;;;;2.13;1.30;;;;;;;24.19;29.89;100298.56;5075419;28;20031;-63
2023/04/27 13:05:01;;;;;;;3.25;1.55;;;;;;;23.46;30.35;100304.44;5075478;28;20119;-63
2023/04/27 13:07:26;;;;;;;2.60;1.35;;;;;;;23.12;32.39;100284.00;5074931;28;20075;-63
2023/04/27 13:09:52;;;;;;;2.00;1.20;;;;;;;23.60;34.06;100285.81;5075144;28;20064;-63
2023/04/27 13:12:17;;;;;;;2.53;1.30;;;;;;;22.93;33.45;100283.50;5075055;28;20558;-63
2023/04/27 13:14:44;;;;;;;2.17;1.15;;;;;;;23.88;31.23;100295.63;5075244;28;20115;-63
2023/04/27 13:17:10;;;;;;;;;;;;;;;23.69;31.75;100283.50;5075175;28;20393;-63
2023/04/27 13:19:36;;;;;;;1.55;0.93;;;;;;;24.11;29.89;100275.38;5057209;28;20292;-64
2023/04/27 13:22:02;;;;;;;1.58;1.23;;;;;;;24.01;30.91;100275.31;5074795;28;20170;-63
2023/04/27 13:24:28;;;;;;;1.92;1.50;;;;;;;24.22;29.88;100276.28;5074970;28;20086;-63
2023/04/27 13:26:53;;;;;;;4.05;1.38;;;;;;;23.47;31.23;100278.94;5074614;28;20052;-65
2023/04/27 13:29:20;;;;;;;2.00;1.40;;;;;;;22.65;32.01;100279.06;5040198;28;20503;-64
2023/04/27 13:31:45;;;;;;;1.58;1.40;;;;;;;22.97;32.34;100280.03;5074758;28;20582;-63
2023/04/27 13:34:10;;;;;;;4.10;1.17;;;;;;;22.98;32.70;100284.38;5074721;28;20060;-63
2023/04/27 13:36:36;;;;;;;1.83;1.20;;;;;;;23.27;31.42;100278.72;5074561;28;20392;-63
2023/04/27 13:39:02;;;;;;;2.10;1.23;;;;;;;23.22;31.39;100282.22;5074389;28;20036;-62
2023/04/27 13:41:28;;;;;;;2.92;1.42;;;;;;;22.61;32.70;100277.91;5073365;28;20035;-64
2023/04/27 13:43:53;;;;;;;1.70;1.10;;;;;;;21.93;34.61;100277.19;5074582;28;20037;-64
2023/04/27 13:46:19;;;;;;;1.77;1.40;;;;;;;22.25;33.06;100265.75;5074511;28;20068;-63
2023/04/27 13:48:44;;;;;;;1.38;1.00;;;;;;;21.95;33.34;100270.44;5074245;28;20115;-63
2023/04/27 13:51:09;;;;;;;1.45;1.20;;;;;;;22.03;35.11;100268.38;5074424;28;20135;-63
2023/04/27 13:53:35;;;;;;;1.08;0.98;;;;;;;21.45;33.19;100269.59;5074128;28;20036;-63
2023/04/27 13:56:00;;;;;;;1.40;1.00;;;;;;;21.05;35.00;100275.88;5074435;28;20485;-64
2023/04/27 13:58:27;;;;;;;2.65;1.48;;;;;;;21.10;35.65;100270.56;5074009;28;20044;-63
2023/04/27 14:00:53;;;;;;;2.17;1.20;;;;;;;21.13;35.99;100267.38;5074339;28;20032;-64
2023/04/27 14:03:19;;;;;;;3.00;1.30;;;;;;;21.13;35.89;100272.78;5074346;28;20040;-64
2023/04/27 14:05:47;;;;;;;1.95;1.40;;;;;;;20.80;34.81;100265.34;5074258;28;20405;-64
2023/04/27 14:08:12;;;;;;;1.67;1.13;;;;;;;20.67;35.48;100268.31;5073855;28;20425;-62
2023/04/27 14:10:38;;;;;;;2.00;1.17;;;;;;;20.98;34.54;100264.34;5072755;28;20063;-64
2023/04/27 14:13:04;;;;;;;2.25;1.15;;;;;;;20.73;34.59;100254.66;5074071;28;20032;-63
2023/04/27 14:15:29;;;;;;;1.92;1.02;;;;;;;20.32;35.08;100256.47;5074002;28;20032;-63
2023/04/27 14:17:55;;;;;;;1.30;0.90;;;;;;;20.43;35.08;100259.41;5072464;28;20094;-63
2023/04/27 14:20:20;;;;;;;1.83;1.05;;;;;;;20.24;35.68;100261.44;5073970;28;20494;-64
2023/04/27 14:22:47;;;;;;;3.63;1.25;;;;;;;20.42;38.74;100263.19;5074055;28;20035;-64
2023/04/27 14:25:12;;;;;;;1.80;1.20;;;;;;;20.41;38.22;100261.50;5072567;28;20036;-64
2023/04/27 14:27:38;;;;;;;1.55;1.10;;;;;;;20.52;36.46;100260.72;5073494;28;20065;-64
2023/04/27 14:30:04;;;;;;;1.25;1.13;;;;;;;20.64;37.38;100256.09;5073891;28;20570;-64
2023/04/27 14:32:29;;;;;;;1.40;1.23;;;;;;;20.19;36.42;100247.78;5073620;28;20033;-62
2023/04/27 14:34:55;;;;;;;1.83;1.17;;;;;;;20.29;37.07;100243.44;5073796;28;20094;-64
2023/04/27 14:37:20;;;;;;;1.80;1.10;;;;;;;20.05;36.48;100225.59;5073256;28;20033;-64
2023/04/27 14:39:45;;;;;;;1.63;1.20;;;;;;;20.08;36.80;100244.03;5072547;28;20557;-63
2023/04/27 14:42:11;;;;;;;1.20;1.10;;;;;;;20.24;36.41;100246.03;5072327;28;20040;-63
2023/04/27 14:44:36;;;;;;;1.73;1.17;;;;;;;19.78;36.30;100246.84;5073408;28;20048;-62
2023/04/27 14:47:02;;;;;;;2.03;1.02;;;;;;;20.12;36.26;100242.50;5075640;28;20051;-63
2023/04/27 14:49:27;;;;;;;2.22;1.20;;;;;;;20.11;36.00;100245.44;5093615;28;20093;-63
2023/04/27 14:51:52;;;;;;;1.95;1.17;;;;;;;20.05;35.82;100244.50;5093551;28;20094;-63
2023/04/27 14:54:18;;;;;;;1.10;0.98;;;;;;;19.88;36.40;100247.06;5093460;28;20062;-63
2023/04/27 14:56:44;;;;;;;1.40;0.93;;;;;;;20.20;36.77;100242.13;5092765;28;20032;-63
2023/04/27 14:59:10;;;;;;;2.42;1.50;;;;;;;20.28;36.10;100247.22;5092996;28;20040;-63
2023/04/27 15:01:35;;;;;;;1.45;1.23;;;;;;;20.10;36.34;100251.91;5092237;28;20032;-62
2023/04/27 15:04:01;;;;;;;1.63;1.10;;;;;;;19.44;36.51;100251.94;5092038;28;20070;-63
2023/04/27 15:06:27;;;;;;;2.75;1.20;;;;;;;19.33;37.44;100246.50;5092190;28;20062;-63
2023/04/27 15:08:55;;;;;;;2.63;1.10;;;;;;;19.28;37.70;100254.44;5092828;28;20042;-63
2023/04/27 15:11:21;;;;;;;1.58;1.00;;;;;;;18.95;38.32;100239.53;5093056;28;20032;-63
2023/04/27 15:13:46;;;;;;;1.40;1.10;;;;;;;19.02;38.00;100240.28;5093089;28;20047;-63
2023/04/27 15:16:12;;;;;;;1.73;1.25;;;;;;;18.87;38.02;100235.28;5093027;28;20043;-63
2023/04/27 15:18:37;;;;;;;0.95;0.73;;;;;;;19.02;38.70;100240.28;5092639;28;20040;-64
2023/04/27 15:21:03;;;;;;;1.55;1.45;;;;;;;19.24;39.16;100236.03;5091655;28;20112;-62
2023/04/27 15:23:28;;;;;;;1.67;1.40;;;;;;;19.49;39.58;100232.31;5092971;28;20493;-63
2023/04/27 15:25:55;;;;;;;1.02;0.70;;;;;;;19.52;38.63;100229.16;5091674;28;20115;-63
2023/04/27 15:28:21;;;;;;;0.70;0.70;;;;;;;19.54;39.91;100221.63;5092613;28;20040;-63
2023/04/27 15:30:46;;;;;;;2.38;0.70;;;;;;;19.47;39.05;100216.34;5092691;28;20499;-62
2023/04/27 15:33:13;;;;;;;1.83;1.00;;;;;;;19.62;39.16;100223.19;5092982;28;20050;-63
2023/04/27 15:35:39;;;;;;;0.70;0.50;;;;;;;19.51;38.17;100219.41;5092703;28;20072;-63
2023/04/27 15:38:06;;;;;;;1.15;0.70;;;;;;;19.66;38.42;100214.41;5092458;28;20040;-63
2023/04/27 15:40:33;;;;;;;0.68;0.63;;;;;;;19.46;38.13;100213.88;5092580;28;20036;-62
2023/04/27 15:42:58;;;;;;;1.43;0.97;;;;;;;19.59;39.70;100207.47;5092593;28;20039;-62
2023/04/27 15:45:24;;;;;;;1.83;0.82;;;;;;;19.60;38.35;100215.34;5092505;28;20027;-63
2023/04/27 15:47:50;;;;;;;1.05;0.85;;;;;;;19.55;39.75;100209.78;5092353;28;20085;-63